createdAt,value
2022-08-09T00:04:00.848Z,18.46
2022-08-09T00:07:21.815Z,18.44
2022-08-09T00:11:24.493Z,18.43
2022-08-09T00:15:09.329Z,18.35
2022-08-09T00:18:57.990Z,18.26
2022-08-09T00:22:41.166Z,18.14
2022-08-09T00:26:33.040Z,18.08
2022-08-09T00:30:25.430Z,18.00
2022-08-09T00:34:09.448Z,17.90
2022-08-09T00:37:53.787Z,17.85
2022-08-09T00:44:10.713Z,17.84
2022-08-09T00:45:46.778Z,17.81
2022-08-09T00:49:38.551Z,17.80
2022-08-09T00:53:23.977Z,17.87
2022-08-09T00:57:10.563Z,17.85
2022-08-09T01:00:55.737Z,17.82
2022-08-09T01:04:50.922Z,17.81
2022-08-09T01:08:48.812Z,17.82
2022-08-09T01:12:39.931Z,17.85
2022-08-09T01:16:25.384Z,17.84
2022-08-09T01:20:10.268Z,17.86
2022-08-09T01:24:02.941Z,17.83
2022-08-09T01:27:52.680Z,17.84
2022-08-09T01:32:32.495Z,17.85
2022-08-09T01:35:43.890Z,17.81
2022-08-09T01:39:27.971Z,17.77
2022-08-09T01:43:15.191Z,17.76
2022-08-09T01:46:59.119Z,17.78
2022-08-09T01:50:44.111Z,17.73
2022-08-09T01:54:33.433Z,17.68
2022-08-09T01:58:18.719Z,17.62
2022-08-09T02:02:09.411Z,17.56
2022-08-09T02:06:06.629Z,17.39
2022-08-09T02:09:59.456Z,17.34
2022-08-09T02:14:06.279Z,17.33
2022-08-09T02:18:00.228Z,17.30
2022-08-09T02:21:55.944Z,17.26
2022-08-09T02:25:42.523Z,17.13
2022-08-09T02:29:37.804Z,17.04
2022-08-09T02:33:23.578Z,17.02
2022-08-09T02:37:31.621Z,17.07
2022-08-09T02:41:17.887Z,17.04
2022-08-09T02:45:04.938Z,16.95
2022-08-09T02:48:51.146Z,16.89
2022-08-09T02:52:39.651Z,16.79
2022-08-09T02:56:23.005Z,16.68
2022-08-09T03:00:25.374Z,16.60
2022-08-09T03:04:18.467Z,16.53
2022-08-09T03:08:03.426Z,16.47
2022-08-09T03:12:06.163Z,16.42
2022-08-09T03:16:05.873Z,16.37
2022-08-09T03:19:59.354Z,16.38
2022-08-09T03:24:01.589Z,16.28
2022-08-09T03:27:50.259Z,16.12
2022-08-09T03:31:42.600Z,16.19
2022-08-09T03:35:44.267Z,16.32
2022-08-09T03:39:40.776Z,16.45
2022-08-09T03:43:33.032Z,16.52
2022-08-09T03:47:17.312Z,16.51
2022-08-09T03:51:00.483Z,16.50
2022-08-09T03:54:45.967Z,16.50
2022-08-09T03:58:33.999Z,16.57
2022-08-09T04:02:19.919Z,16.60
2022-08-09T04:06:09.342Z,16.61
2022-08-09T04:09:54.591Z,16.59
2022-08-09T04:14:37.326Z,16.57
2022-08-09T04:17:43.589Z,16.55
2022-08-09T04:21:26.439Z,16.52
2022-08-09T04:25:10.519Z,16.57
2022-08-09T04:28:57.421Z,16.64
2022-08-09T04:32:46.003Z,16.77
2022-08-09T04:36:32.281Z,16.84
2022-08-09T04:40:19.043Z,16.81
2022-08-09T04:44:07.349Z,16.80
2022-08-09T04:48:00.940Z,16.75
2022-08-09T04:51:46.946Z,16.76
2022-08-09T04:55:35.399Z,16.78
2022-08-09T04:59:22.714Z,16.83
2022-08-09T05:03:30.102Z,16.88
2022-08-09T05:07:17.444Z,17.00
2022-08-09T05:11:02.467Z,17.14
2022-08-09T05:14:45.462Z,17.22
2022-08-09T05:18:50.871Z,17.29
2022-08-09T05:23:51.003Z,17.34
2022-08-09T05:26:46.113Z,17.40
2022-08-09T05:30:31.321Z,17.53
2022-08-09T05:34:16.557Z,17.61
2022-08-09T05:38:00.005Z,17.70
2022-08-09T05:41:44.377Z,17.82
2022-08-09T05:45:52.651Z,17.90
2022-08-09T05:50:26.838Z,17.97
2022-08-09T05:53:39.537Z,18.04
2022-08-09T05:57:51.088Z,18.18
2022-08-09T06:01:42.360Z,18.23
2022-08-09T06:05:31.051Z,18.27
2022-08-09T06:09:55.219Z,18.31
2022-08-09T06:13:33.866Z,18.38
2022-08-09T06:17:17.106Z,18.44
2022-08-09T06:21:02.057Z,18.50
2022-08-09T06:24:47.153Z,18.54
2022-08-09T06:28:32.009Z,18.58
2022-08-09T06:32:53.274Z,18.65
2022-08-09T06:36:18.989Z,18.74
2022-08-09T06:40:21.585Z,18.79
2022-08-09T06:44:07.255Z,18.96
2022-08-09T06:47:50.000Z,19.03
2022-08-09T06:51:45.977Z,19.13
2022-08-09T06:55:31.903Z,19.26
2022-08-09T07:00:54.991Z,19.33
2022-08-09T07:03:17.722Z,19.44
2022-08-09T07:07:05.013Z,19.56
2022-08-09T07:10:48.057Z,19.65
2022-08-09T07:14:30.821Z,19.71
2022-08-09T07:18:15.077Z,19.79
2022-08-09T07:21:59.092Z,19.87
2022-08-09T07:25:44.402Z,19.93
2022-08-09T07:29:30.731Z,19.98
2022-08-09T07:33:20.626Z,20.07
2022-08-09T07:37:03.609Z,20.13
2022-08-09T07:41:08.331Z,20.24
2022-08-09T07:44:54.628Z,20.30
2022-08-09T07:48:39.335Z,20.38
2022-08-09T07:52:22.160Z,20.49
2022-08-09T07:56:08.800Z,20.63
2022-08-09T08:00:10.889Z,20.70
2022-08-09T08:04:04.247Z,20.79
2022-08-09T08:08:43.622Z,20.93
2022-08-09T08:12:09.419Z,21.05
2022-08-09T08:16:01.732Z,21.07
2022-08-09T08:19:44.565Z,21.13
2022-08-09T08:23:29.139Z,21.21
2022-08-09T08:27:19.063Z,21.27
2022-08-09T08:31:14.142Z,21.31
2022-08-09T08:34:58.793Z,21.35
2022-08-09T08:38:41.883Z,21.43
2022-08-09T08:42:32.155Z,21.55
2022-08-09T08:46:32.065Z,21.61
2022-08-09T08:50:18.564Z,21.64
2022-08-09T08:54:06.841Z,21.70
2022-08-09T08:57:56.478Z,21.75
2022-08-09T09:01:53.385Z,21.78
2022-08-09T09:05:58.238Z,21.79
2022-08-09T09:10:01.444Z,21.81
2022-08-09T09:13:55.874Z,21.81
2022-08-09T09:17:49.203Z,21.86
2022-08-09T09:21:43.434Z,21.92
2022-08-09T09:26:01.808Z,21.93
2022-08-09T09:30:14.063Z,21.94
2022-08-09T09:33:46.941Z,22.05
2022-08-09T09:37:40.918Z,22.12
2022-08-09T09:41:48.669Z,22.14
2022-08-09T09:46:39.544Z,22.13
2022-08-09T09:50:14.058Z,22.10
2022-08-09T09:54:17.091Z,22.09
2022-08-09T09:58:18.622Z,22.09
2022-08-09T10:02:03.678Z,22.18
2022-08-09T10:06:03.508Z,22.16
2022-08-09T10:09:55.048Z,22.18
2022-08-09T10:13:43.702Z,22.22
2022-08-09T10:17:39.339Z,22.25
2022-08-09T10:21:33.420Z,22.27
2022-08-09T10:25:16.440Z,22.31
2022-08-09T10:29:21.234Z,22.38
2022-08-09T10:33:09.683Z,22.46
2022-08-09T10:37:13.959Z,22.49
2022-08-09T10:40:57.028Z,22.53
2022-08-09T10:44:40.088Z,22.60
2022-08-09T10:48:30.655Z,22.63
2022-08-09T10:52:22.077Z,22.70
2022-08-09T10:56:22.592Z,22.87
2022-08-09T11:00:51.116Z,22.89
2022-08-09T11:04:55.813Z,22.94
2022-08-09T11:08:47.120Z,23.01
2022-08-09T11:12:30.795Z,23.06
2022-08-09T11:16:35.349Z,23.07
2022-08-09T11:20:23.525Z,23.05
2022-08-09T11:24:06.560Z,23.07
2022-08-09T11:28:04.461Z,23.10
2022-08-09T11:31:52.803Z,23.17
2022-08-09T11:35:49.116Z,23.26
2022-08-09T11:39:33.507Z,23.31
2022-08-09T11:43:39.792Z,23.40
2022-08-09T11:47:22.609Z,23.47
2022-08-09T11:51:21.279Z,23.57
2022-08-09T11:55:35.019Z,23.73
2022-08-09T11:59:35.241Z,23.80
2022-08-09T12:03:55.807Z,23.89
2022-08-09T12:07:41.345Z,23.98
2022-08-09T12:11:27.417Z,24.10
2022-08-09T12:15:48.726Z,24.17
2022-08-09T12:19:30.307Z,24.28
2022-08-09T12:23:14.491Z,24.40
2022-08-09T12:29:14.403Z,24.55
2022-08-09T12:31:58.825Z,24.67
2022-08-09T12:35:40.068Z,24.78
2022-08-09T12:39:25.265Z,24.84
2022-08-09T12:43:10.385Z,24.97
2022-08-09T12:46:53.261Z,25.13
2022-08-09T12:50:36.713Z,25.25
2022-08-09T12:54:20.081Z,25.39
2022-08-09T12:58:24.446Z,25.58
2022-08-09T13:02:11.149Z,25.75
2022-08-09T13:06:14.363Z,25.85
2022-08-09T13:10:02.760Z,26.05
2022-08-09T13:14:41.101Z,26.26
2022-08-09T13:18:05.452Z,26.44
2022-08-09T13:22:36.093Z,26.67
2022-08-09T13:26:11.122Z,26.74
2022-08-09T13:30:03.635Z,26.85
2022-08-09T13:34:00.255Z,27.07
2022-08-09T13:37:52.081Z,27.25
2022-08-09T13:41:58.907Z,27.43
2022-08-09T13:46:44.774Z,27.69
2022-08-09T13:49:57.475Z,27.94
2022-08-09T13:53:43.181Z,28.23
2022-08-09T13:57:36.970Z,28.43
2022-08-09T14:02:00.502Z,28.66
2022-08-09T14:05:59.912Z,28.85
2022-08-09T14:09:30.791Z,29.13
2022-08-09T14:13:27.698Z,29.32
2022-08-09T14:17:22.524Z,29.39
2022-08-09T14:21:06.011Z,29.45
2022-08-09T14:24:54.040Z,29.64
2022-08-09T14:28:37.060Z,29.95
2022-08-09T14:32:28.744Z,30.29
2022-08-09T14:36:20.350Z,30.61
2022-08-09T14:40:04.367Z,30.97
2022-08-09T14:43:53.453Z,31.36
2022-08-09T14:47:46.309Z,31.71
2022-08-09T14:51:42.258Z,32.03
2022-08-09T14:55:25.674Z,32.51
2022-08-09T14:59:15.255Z,32.86
2022-08-09T15:03:00.035Z,33.23
2022-08-09T15:06:43.010Z,34.36
2022-08-09T15:10:33.337Z,35.30
2022-08-09T15:14:19.100Z,36.20
2022-08-09T15:18:03.514Z,37.44
2022-08-09T15:22:01.825Z,38.82
2022-08-09T15:25:45.262Z,39.99
2022-08-09T15:30:56.975Z,40.64
2022-08-09T15:34:15.526Z,41.20
2022-08-09T15:38:00.697Z,41.66
2022-08-09T15:41:42.194Z,41.70
2022-08-09T15:45:29.343Z,41.66
2022-08-09T15:49:20.730Z,41.49
2022-08-09T15:53:32.625Z,40.79
2022-08-09T15:57:09.631Z,39.90
2022-08-09T16:00:52.525Z,39.28
2022-08-09T16:04:37.121Z,38.76
2022-08-09T16:08:30.078Z,38.22
2022-08-09T16:12:14.148Z,37.84
2022-08-09T16:16:04.742Z,37.46
2022-08-09T16:20:04.867Z,36.92
2022-08-09T16:23:55.957Z,36.54
2022-08-09T16:27:47.887Z,36.09
2022-08-09T16:32:10.238Z,35.49
2022-08-09T16:35:57.981Z,34.98
2022-08-09T16:39:54.528Z,34.41
2022-08-09T16:43:44.720Z,33.89
2022-08-09T16:48:38.471Z,33.54
2022-08-09T16:51:31.691Z,33.20
2022-08-09T16:55:18.168Z,32.84
2022-08-09T16:59:06.709Z,32.41
2022-08-09T17:02:57.185Z,32.27
2022-08-09T17:08:40.829Z,32.08
2022-08-09T17:10:44.280Z,31.77
2022-08-09T17:14:28.850Z,31.55
2022-08-09T17:18:11.741Z,31.27
2022-08-09T17:21:59.673Z,30.91
2022-08-09T17:25:42.551Z,30.70
2022-08-09T17:29:25.315Z,30.52
2022-08-09T17:33:22.549Z,30.18
2022-08-09T17:37:07.647Z,29.80
2022-08-09T17:41:03.273Z,29.29
2022-08-09T17:44:49.491Z,28.78
2022-08-09T17:48:32.644Z,28.36
2022-08-09T17:52:20.600Z,27.90
2022-08-09T17:56:08.325Z,27.56
2022-08-09T18:00:00.837Z,27.23
2022-08-09T18:03:49.189Z,27.00
2022-08-09T18:07:34.448Z,26.79
2022-08-09T18:11:17.620Z,26.50
2022-08-09T18:15:07.748Z,26.25
2022-08-09T18:18:54.761Z,26.03
2022-08-09T18:22:39.976Z,25.81
2022-08-09T18:26:27.054Z,25.58
2022-08-09T18:30:39.959Z,25.42
2022-08-09T18:34:13.421Z,25.25
2022-08-09T18:37:57.535Z,25.08
2022-08-09T18:41:42.140Z,24.91
2022-08-09T18:46:51.267Z,24.71
2022-08-09T18:49:41.766Z,24.54
2022-08-09T18:53:36.772Z,24.40
2022-08-09T18:57:38.573Z,24.25
2022-08-09T19:01:27.683Z,24.09
2022-08-09T19:05:20.596Z,23.95
2022-08-09T19:09:34.365Z,23.83
2022-08-09T19:13:20.779Z,23.71
2022-08-09T19:17:06.561Z,23.60
2022-08-09T19:20:52.294Z,23.50
2022-08-09T19:25:08.800Z,23.46
2022-08-09T19:28:48.777Z,23.32
2022-08-09T19:32:32.000Z,23.23
2022-08-09T19:36:16.434Z,23.17
2022-08-09T19:40:05.071Z,23.12
2022-08-09T19:44:02.206Z,23.03
2022-08-09T19:47:45.762Z,22.94
2022-08-09T19:51:31.068Z,22.86
2022-08-09T19:55:15.453Z,22.77
2022-08-09T19:59:18.252Z,22.65
2022-08-09T20:04:13.854Z,22.60
2022-08-09T20:07:06.299Z,22.54
2022-08-09T20:10:51.547Z,22.48
2022-08-09T20:14:35.997Z,22.39
2022-08-09T20:18:32.813Z,22.33
2022-08-09T20:22:15.657Z,22.27
2022-08-09T20:26:02.961Z,22.20
2022-08-09T20:29:45.748Z,22.10
2022-08-09T20:33:41.307Z,22.03
2022-08-09T20:38:19.450Z,21.96
2022-08-09T20:41:34.914Z,21.91
2022-08-09T20:45:56.787Z,21.87
2022-08-09T20:49:23.201Z,21.81
2022-08-09T20:53:21.095Z,21.65
2022-08-09T20:57:10.165Z,21.53
2022-08-09T21:01:13.745Z,21.49
2022-08-09T21:05:52.070Z,21.50
2022-08-09T21:08:59.428Z,21.49
2022-08-09T21:16:40.572Z,21.29
2022-08-09T21:20:26.340Z,21.28
2022-08-09T21:24:09.942Z,21.24
2022-08-09T21:27:55.482Z,21.17
2022-08-09T21:31:49.090Z,21.03
2022-08-09T21:35:40.535Z,20.97
2022-08-09T21:39:42.349Z,20.90
2022-08-09T21:43:31.433Z,20.86
2022-08-09T21:47:29.447Z,20.81
2022-08-09T21:51:14.114Z,20.80
2022-08-09T21:55:03.802Z,20.74
2022-08-09T21:58:48.720Z,20.66
2022-08-09T22:02:36.651Z,20.60
2022-08-09T22:06:20.689Z,20.50
2022-08-09T22:10:05.924Z,20.41
2022-08-09T22:13:50.003Z,20.35
2022-08-09T22:17:34.106Z,20.26
2022-08-09T22:21:22.433Z,20.14
2022-08-09T22:26:07.033Z,20.03
2022-08-09T22:29:12.010Z,19.93
2022-08-09T22:32:54.792Z,19.87
2022-08-09T22:36:46.148Z,19.78
2022-08-09T22:40:29.459Z,19.73
2022-08-09T22:44:18.393Z,19.69
2022-08-09T22:48:10.695Z,19.65
2022-08-09T22:52:01.890Z,19.61
2022-08-09T22:56:29.711Z,19.58
2022-08-09T22:59:56.119Z,19.49
2022-08-09T23:04:03.490Z,19.43
2022-08-09T23:08:22.161Z,19.31
2022-08-09T23:12:05.189Z,19.19
2022-08-09T23:16:02.597Z,19.07
2022-08-09T23:20:07.039Z,19.05
2022-08-09T23:24:05.414Z,18.99
2022-08-09T23:27:57.220Z,18.96
2022-08-09T23:31:54.520Z,18.99
2022-08-09T23:36:06.328Z,19.02
2022-08-09T23:39:40.316Z,19.05
2022-08-09T23:43:23.450Z,19.05
2022-08-09T23:47:07.774Z,18.95
2022-08-09T23:50:50.567Z,18.87
2022-08-09T23:54:33.415Z,18.81
2022-08-09T23:58:25.988Z,18.73
